Time;durP1;ratioP1;P1;durP2;ratioP2;P2;SDS_P1;SDS_P2;PMS_P1;PMS_P2;Temp;Humidity;BMP_temperature;BMP_pressure;BME280_temperature;BME280_humidity;BME280_pressure;Samples;Min_cycle;Max_cycle;Signal;HPM_P1;HPM_P2
2021/12/29 00:02:30;;;;;;;;;52.00;41.80;;;;;3.43;48.14;97578.97;6212223;28;97566;-68
2021/12/29 00:05:33;;;;;;;;;53.00;42.00;;;;;3.53;47.62;97578.53;6213023;28;97040;-66
2021/12/29 00:08:36;;;;;;;;;58.20;44.80;;;;;3.52;47.28;97578.75;6212875;28;97459;-68
2021/12/29 00:11:41;;;;;;;;;59.00;46.00;;;;;3.47;47.37;97568.69;6209504;28;97643;-68
2021/12/29 00:14:46;;;;;;;;;59.60;46.00;;;;;3.49;47.31;97572.81;6212358;28;97452;-70
2021/12/29 00:17:50;;;;;;;;;57.75;46.00;;;;;3.44;47.12;97569.94;6212441;28;97126;-66
2021/12/29 00:20:53;;;;;;;;;57.75;44.25;;;;;3.34;47.22;97574.06;6211346;28;96928;-68
2021/12/29 00:23:59;;;;;;;;;56.25;46.00;;;;;3.23;47.41;97577.34;6211406;28;96673;-66
2021/12/29 00:27:04;;;;;;;;;58.50;44.00;;;;;3.24;47.32;97577.16;6210188;28;96801;-66
2021/12/29 00:30:12;;;;;;;;;58.20;45.80;;;;;3.14;47.64;97578.59;6208102;28;97724;-68
2021/12/29 00:33:30;;;;;;;;;58.20;46.00;;;;;3.15;47.63;97588.22;6209666;28;96959;-68
2021/12/29 00:36:53;;;;;;;;;56.00;43.50;;;;;3.16;47.90;97585.38;6206439;28;97542;-66
2021/12/29 00:40:21;;;;;;;;;58.40;44.80;;;;;3.27;48.06;97595.41;6208963;28;96972;-69
2021/12/29 00:43:44;;;;;;;;;57.40;45.00;;;;;3.34;47.46;97595.38;6210985;28;97427;-65
2021/12/29 00:47:11;;;;;;;;;56.20;44.00;;;;;3.40;47.55;97595.38;6174055;28;97938;-69
2021/12/29 00:50:16;;;;;;;;;58.00;45.00;;;;;3.50;47.47;97581.63;6184611;28;97901;-66
2021/12/29 00:53:19;;;;;;;;;60.25;46.25;;;;;3.55;47.57;97575.66;6228456;27;96671;-66
2021/12/29 00:56:23;;;;;;;;;57.25;45.00;;;;;3.50;47.71;97578.94;6210518;28;97549;-66
2021/12/29 00:59:26;;;;;;;;;61.00;46.00;;;;;3.51;47.82;97579.78;6210218;28;96498;-68
2021/12/29 01:02:31;;;;;;;;;55.60;43.20;;;;;3.56;47.83;97585.31;6210328;28;96792;-68
2021/12/29 01:05:34;;;;;;;;;55.00;42.60;;;;;3.64;47.79;97563.75;6209159;28;97438;-69
2021/12/29 01:08:38;;;;;;;;;57.40;42.80;;;;;3.66;47.58;97567.03;6210466;28;96988;-65
2021/12/29 01:11:42;;;;;;;;;55.80;44.00;;;;;3.70;47.58;97565.56;6192664;28;98782;-66
2021/12/29 01:14:53;;;;;;;;;53.80;43.00;;;;;3.72;47.55;97566.16;6193857;28;97171;-68
2021/12/29 01:18:01;;;;;;;;;57.00;44.00;;;;;3.67;47.51;97573.97;6211961;28;96521;-66
2021/12/29 01:21:05;;;;;;;;;56.20;44.20;;;;;3.57;47.78;97558.41;6212021;28;97218;-68
2021/12/29 01:24:10;;;;;;;;;56.25;44.00;;;;;3.49;47.73;97564.81;6209786;28;97039;-69
2021/12/29 01:27:14;;;;;;;;;50.40;41.00;;;;;3.50;47.82;97552.31;6209765;28;98509;-66
2021/12/29 01:30:17;;;;;;;;;58.75;43.50;;;;;3.54;47.74;97553.53;6209954;28;98383;-65
2021/12/29 01:33:22;;;;;;;;;51.60;41.60;;;;;3.56;47.83;97566.66;6211522;28;97505;-69
2021/12/29 01:36:26;;;;;;;;;56.60;42.60;;;;;3.59;47.93;97556.38;6212182;28;96470;-69
2021/12/29 01:39:30;;;;;;;;;54.80;41.40;;;;;3.60;47.77;97565.19;6211652;28;96483;-65
2021/12/29 01:42:34;;;;;;;;;55.40;44.00;;;;;3.62;47.49;97571.94;6209988;28;97770;-66
2021/12/29 01:45:38;;;;;;;;;53.80;41.40;;;;;3.58;47.40;97568.06;6211415;28;97442;-68
2021/12/29 01:48:43;;;;;;;;;56.00;44.00;;;;;3.58;47.46;97573.38;6211579;28;97389;-68
2021/12/29 01:51:51;;;;;;;;;53.00;42.80;;;;;3.52;47.10;97560.91;6211702;28;97501;-65
2021/12/29 01:54:54;;;;;;;;;53.00;42.00;;;;;3.45;46.71;97560.09;6194797;28;96789;-66
2021/12/29 01:57:59;;;;;;;;;56.60;44.00;;;;;3.40;46.79;97554.59;6213831;28;97970;-65
2021/12/29 02:01:04;;;;;;;;;57.40;44.00;;;;;3.36;46.56;97561.38;6215533;28;96661;-65
2021/12/29 02:04:09;;;;;;;;;53.00;41.50;;;;;3.35;47.04;97576.53;6215839;28;96564;-68
2021/12/29 02:07:13;;;;;;;;;55.00;43.75;;;;;3.29;47.11;97560.53;6215597;28;97043;-65
2021/12/29 02:10:20;;;;;;;;;52.00;41.50;;;;;3.23;46.76;97569.34;6215514;28;97541;-68
2021/12/29 02:13:23;;;;;;;;;54.75;42.50;;;;;3.20;46.85;97569.78;6215583;28;97389;-65
2021/12/29 02:16:28;;;;;;;;;52.60;41.20;;;;;3.18;47.43;97577.16;6214097;28;96663;-65
2021/12/29 02:19:33;;;;;;;;;51.50;40.75;;;;;3.05;47.25;97565.50;6210420;28;97240;-66
2021/12/29 02:22:41;;;;;;;;;51.00;40.00;;;;;3.05;46.91;97570.00;6213083;28;97599;-65
2021/12/29 02:25:50;;;;;;;;;56.00;44.00;;;;;3.00;47.20;97567.13;6212981;28;96951;-65
2021/12/29 02:28:56;;;;;;;;;56.00;42.20;;;;;2.92;47.02;97568.19;6197162;28;96628;-65
2021/12/29 02:31:59;;;;;;;;;53.40;40.80;;;;;2.90;47.33;97564.06;6194658;28;97472;-66
2021/12/29 02:35:03;;;;;;;;;52.00;42.00;;;;;2.88;47.53;97566.13;6212273;28;98298;-65
2021/12/29 02:38:11;;;;;;;;;57.60;43.40;;;;;2.86;47.01;97569.00;6214503;28;96783;-67
2021/12/29 02:41:15;;;;;;;;;52.00;43.00;;;;;2.84;47.50;97562.22;6188480;28;97839;-67
2021/12/29 02:44:24;;;;;;;;;55.80;43.40;;;;;2.90;47.33;97551.59;6203771;28;96692;-65
2021/12/29 02:47:28;;;;;;;;;56.00;44.00;;;;;2.98;48.14;97562.00;6227017;28;99564;-67
2021/12/29 02:50:31;;;;;;;;;56.40;42.00;;;;;3.04;47.99;97565.69;6213273;28;99017;-65
2021/12/29 02:53:37;;;;;;;;;56.75;44.50;;;;;3.13;47.91;97569.78;6214294;28;96368;-65
2021/12/29 02:56:42;;;;;;;;;53.80;42.20;;;;;3.27;48.10;97565.28;6215014;28;96511;-65
2021/12/29 02:59:45;;;;;;;;;56.00;43.60;;;;;3.36;48.49;97572.84;6214934;28;96384;-66
2021/12/29 03:02:49;;;;;;;;;55.20;43.80;;;;;3.41;48.12;97569.56;6214922;28;97161;-66
2021/12/29 03:05:53;;;;;;;;;56.60;43.00;;;;;3.54;48.52;97574.84;6213791;28;96766;-68
2021/12/29 03:08:58;;;;;;;;;54.40;41.80;;;;;3.69;48.40;97571.94;6214637;28;97125;-68
2021/12/29 03:12:02;;;;;;;;;56.00;43.00;;;;;3.70;48.33;97574.38;6214378;28;96587;-68
2021/12/29 03:15:06;;;;;;;;;53.00;42.00;;;;;3.73;48.28;97568.63;6212683;28;99490;-68
2021/12/29 03:18:09;;;;;;;;;55.00;44.00;;;;;3.81;48.39;97554.25;6214558;28;98096;-66
2021/12/29 03:21:13;;;;;;;;;55.00;42.00;;;;;3.65;48.46;97538.72;6212865;28;98151;-68
2021/12/29 03:24:20;;;;;;;;;52.80;41.00;;;;;3.92;48.27;97562.41;6214235;28;96827;-67
2021/12/29 03:27:24;;;;;;;;;51.00;41.00;;;;;3.90;48.08;97561.81;6212735;28;97448;-68
2021/12/29 03:30:29;;;;;;;;;53.60;43.00;;;;;3.91;48.11;97562.59;6214392;28;96968;-65
2021/12/29 03:33:33;;;;;;;;;51.40;40.00;;;;;3.92;48.03;97567.72;6214106;28;96515;-68
2021/12/29 03:36:36;;;;;;;;;51.20;41.20;;;;;3.95;48.36;97561.19;6213852;28;97508;-68
2021/12/29 03:39:41;;;;;;;;;52.00;39.80;;;;;4.04;48.24;97565.22;6210870;28;97248;-65
2021/12/29 03:42:44;;;;;;;;;50.00;40.40;;;;;4.13;48.20;97569.28;6213465;28;96815;-68
2021/12/29 03:45:51;;;;;;;;;50.80;41.20;;;;;4.19;47.93;97565.78;6212909;28;97582;-65
2021/12/29 03:48:55;;;;;;;;;50.00;39.00;;;;;4.25;47.91;97572.09;6228737;28;98362;-65
2021/12/29 03:51:59;;;;;;;;;52.00;41.20;;;;;4.28;47.90;97583.16;6195648;28;96612;-68
2021/12/29 03:55:05;;;;;;;;;52.00;41.40;;;;;4.29;47.61;97582.13;6212200;28;97462;-65
2021/12/29 03:58:08;;;;;;;;;49.60;41.00;;;;;4.29;47.69;97587.47;6246224;27;97164;-66
2021/12/29 04:01:13;;;;;;;;;50.75;37.00;;;;;4.25;47.66;97588.13;6212998;28;97469;-66
2021/12/29 04:04:18;;;;;;;;;52.60;41.40;;;;;4.39;47.38;97595.00;6212051;28;96602;-67
2021/12/29 04:07:21;;;;;;;;;51.60;39.80;;;;;4.38;47.38;97592.56;6213460;28;97538;-67
2021/12/29 04:10:26;;;;;;;;;50.00;40.00;;;;;4.38;47.31;97587.22;6213147;28;96366;-67
2021/12/29 04:13:30;;;;;;;;;53.80;41.00;;;;;4.34;47.69;97592.16;6213477;28;96896;-66
2021/12/29 04:16:36;;;;;;;;;49.00;40.00;;;;;4.31;47.61;97582.72;6213069;28;96385;-67
2021/12/29 04:23:01;;;;;;;;;51.20;40.60;;;;;4.29;47.65;97600.81;6193507;28;98003;-69
2021/12/29 04:26:08;;;;;;;;;52.00;41.25;;;;;4.29;47.55;97611.47;6213096;28;97034;-66
2021/12/29 04:29:13;;;;;;;;;50.00;39.40;;;;;4.29;47.76;97616.00;6211461;28;96997;-69
2021/12/29 04:32:17;;;;;;;;;47.00;39.00;;;;;4.26;47.83;97621.75;6212900;28;97458;-66
2021/12/29 04:35:22;;;;;;;;;47.00;36.00;;;;;4.26;47.79;97606.56;6210474;28;97536;-69
2021/12/29 04:38:25;;;;;;;;;47.80;38.60;;;;;4.29;47.37;97624.00;6210235;28;99643;-65
2021/12/29 04:41:30;;;;;;;;;53.20;40.00;;;;;4.23;47.69;97622.16;6211094;28;99572;-66
2021/12/29 04:44:34;;;;;;;;;49.00;39.60;;;;;4.26;47.53;97617.22;6210099;28;97731;-68
2021/12/29 04:47:40;;;;;;;;;51.40;39.00;;;;;4.24;47.77;97619.31;6210660;28;97119;-64
2021/12/29 04:50:50;;;;;;;;;53.00;41.40;;;;;4.27;47.88;97618.03;6212475;28;96492;-65
2021/12/29 04:53:54;;;;;;;;;56.00;43.75;;;;;4.32;47.64;97623.56;6209914;28;96678;-65
2021/12/29 04:56:59;;;;;;;;;53.40;43.00;;;;;4.39;47.72;97623.53;6212030;28;97047;-68
2021/12/29 05:00:05;;;;;;;;;55.00;43.00;;;;;4.40;47.46;97631.31;6209406;28;99145;-66
2021/12/29 05:03:09;;;;;;;;;55.00;42.00;;;;;4.42;47.31;97629.25;6213210;28;98492;-67
2021/12/29 05:09:33;;;;;;;;;50.00;41.00;;;;;4.46;47.42;97618.97;6193863;28;96989;-67
2021/12/29 05:12:38;;;;;;;;;54.00;44.00;;;;;4.47;47.63;97618.75;6230165;28;97405;-67
2021/12/29 05:15:41;;;;;;;;;53.00;42.00;;;;;4.49;47.62;97618.56;6205823;28;97998;-68
2021/12/29 05:18:45;;;;;;;;;49.60;40.00;;;;;4.47;47.67;97621.44;6211886;28;96401;-67
2021/12/29 05:21:49;;;;;;;;;53.60;42.00;;;;;4.41;47.58;97616.13;6211848;28;96944;-67
2021/12/29 05:24:52;;;;;;;;;52.00;40.00;;;;;4.42;47.88;97615.91;6211106;28;97520;-68
2021/12/29 05:27:57;;;;;;;;;50.40;40.00;;;;;4.44;47.60;97626.38;6185488;28;97313;-68
2021/12/29 05:31:02;;;;;;;;;49.00;40.00;;;;;4.49;47.67;97631.91;6210013;28;96607;-65
2021/12/29 05:34:06;;;;;;;;;54.40;40.40;;;;;4.46;47.69;97640.31;6210623;28;96721;-68
2021/12/29 05:37:09;;;;;;;;;48.50;39.00;;;;;4.55;47.36;97642.53;6209893;28;98090;-65
2021/12/29 05:40:15;;;;;;;;;51.00;40.00;;;;;4.55;47.21;97641.69;6212413;28;97111;-65
2021/12/29 05:43:20;;;;;;;;;50.40;40.00;;;;;4.59;47.19;97643.75;6212096;28;96606;-67
2021/12/29 05:46:24;;;;;;;;;52.20;42.00;;;;;4.52;47.29;97648.31;6244668;27;96303;-67
2021/12/29 05:49:27;;;;;;;;;55.50;43.00;;;;;4.50;47.44;97655.69;6211759;28;96468;-67
2021/12/29 05:52:30;;;;;;;;;55.00;43.00;;;;;4.53;47.29;97647.28;6210345;28;96546;-66
2021/12/29 05:55:34;;;;;;;;;52.40;42.40;;;;;4.55;47.26;97653.19;6211735;28;97095;-66
2021/12/29 05:58:41;;;;;;;;;52.60;41.00;;;;;4.59;47.21;97649.09;6225412;27;97232;-66
2021/12/29 06:01:45;;;;;;;;;55.00;42.00;;;;;4.57;47.06;97661.81;6210048;28;96685;-69
2021/12/29 06:04:48;;;;;;;;;56.00;41.67;;;;;4.51;47.31;97662.66;6204406;28;100148;-66
2021/12/29 06:07:52;;;;;;;;;52.25;42.25;;;;;4.46;47.51;97656.31;6205294;28;98585;-67
2021/12/29 06:10:55;;;;;;;;;50.00;40.00;;;;;4.50;47.76;97663.69;6212409;28;96529;-68
2021/12/29 06:14:01;;;;;;;;;50.00;41.50;;;;;4.52;47.46;97671.50;6221042;27;96719;-66
2021/12/29 06:17:04;;;;;;;;;53.40;42.60;;;;;4.51;47.43;97664.50;6194581;28;98060;-68
2021/12/29 06:20:10;;;;;;;;;53.00;42.00;;;;;4.44;47.56;97650.41;6190291;28;97905;-66
2021/12/29 06:23:13;;;;;;;;;54.40;44.00;;;;;4.56;47.34;97681.53;6191986;28;96730;-65
2021/12/29 06:26:17;;;;;;;;;55.80;43.60;;;;;4.66;47.30;97686.41;6203519;28;97006;-69
2021/12/29 06:29:22;;;;;;;;;59.50;45.75;;;;;4.64;47.14;97691.94;6215053;28;97114;-66
2021/12/29 06:32:26;;;;;;;;;56.00;43.00;;;;;4.69;47.16;97694.00;6201149;28;97113;-68
2021/12/29 06:35:30;;;;;;;;;57.50;44.00;;;;;4.68;47.02;97700.38;6210505;28;96663;-66
2021/12/29 06:38:34;;;;;;;;;55.40;43.40;;;;;4.70;47.29;97700.97;6210848;28;97152;-64
2021/12/29 06:41:37;;;;;;;;;58.00;44.00;;;;;4.73;47.15;97705.91;6210605;28;96715;-69
2021/12/29 06:44:43;;;;;;;;;57.80;45.00;;;;;4.75;47.04;97709.97;6213089;28;98530;-66
2021/12/29 06:47:46;;;;;;;;;56.50;44.00;;;;;4.72;47.07;97707.75;6212955;28;97306;-67
2021/12/29 06:50:50;;;;;;;;;55.00;43.60;;;;;4.69;47.19;97724.16;6212975;28;97060;-68
2021/12/29 06:53:53;;;;;;;;;57.20;44.40;;;;;4.72;47.17;97720.28;6214447;28;97500;-68
2021/12/29 06:56:57;;;;;;;;;53.67;41.00;;;;;4.66;47.03;97727.28;6213538;28;96866;-66
2021/12/29 07:00:03;;;;;;;;;53.00;40.60;;;;;4.76;46.86;97727.63;6213264;28;96475;-67
2021/12/29 07:03:07;;;;;;;;;52.00;41.00;;;;;4.77;46.94;97729.28;6213071;28;98787;-69
2021/12/29 07:06:10;;;;;;;;;52.80;42.80;;;;;4.78;46.92;97733.59;6214328;28;97416;-65
2021/12/29 07:09:13;;;;;;;;;53.00;43.00;;;;;4.75;46.89;97735.84;6215029;28;97430;-67
2021/12/29 07:12:19;;;;;;;;;53.00;41.00;;;;;4.82;47.18;97741.16;6214591;28;96859;-66
2021/12/29 07:15:24;;;;;;;;;55.00;42.40;;;;;4.87;46.80;97734.16;6213932;28;97729;-65
2021/12/29 07:18:27;;;;;;;;;55.00;43.60;;;;;4.89;46.94;97732.09;6197271;28;96729;-69
2021/12/29 07:21:31;;;;;;;;;53.33;41.33;;;;;4.82;47.02;97728.63;6211663;28;96966;-70
2021/12/29 07:24:35;;;;;;;;;51.50;40.75;;;;;4.82;46.91;97728.63;6212819;28;96425;-67
2021/12/29 07:27:39;;;;;;;;;56.00;43.40;;;;;4.87;47.06;97736.84;6213806;28;97065;-70
2021/12/29 07:30:43;;;;;;;;;52.33;40.33;;;;;4.94;46.71;97739.44;6195991;28;96608;-69
2021/12/29 07:33:48;;;;;;;;;56.40;43.00;;;;;4.97;46.75;97739.88;6212674;28;96799;-69
2021/12/29 07:36:52;;;;;;;;;52.60;41.00;;;;;5.02;46.78;97741.88;6210713;28;97024;-69
2021/12/29 07:39:55;;;;;;;;;54.50;42.50;;;;;4.90;46.89;97723.03;6212911;28;96687;-68
2021/12/29 07:42:58;;;;;;;;;53.80;40.80;;;;;5.17;46.70;97756.59;6211928;28;97037;-67
2021/12/29 07:46:03;;;;;;;;;53.60;42.00;;;;;5.26;46.69;97761.69;6209162;28;97455;-68
2021/12/29 07:49:07;;;;;;;;;52.00;40.00;;;;;5.32;46.23;97764.31;6196644;28;96888;-72
2021/12/29 07:52:10;;;;;;;;;53.25;42.25;;;;;5.28;46.41;97760.41;6210718;28;96945;-70
2021/12/29 07:55:13;;;;;;;;;52.25;41.00;;;;;5.32;46.25;97764.31;6212639;28;97102;-68
2021/12/29 07:58:17;;;;;;;;;55.00;42.25;;;;;5.28;46.19;97740.91;6211530;28;97966;-66
2021/12/29 08:01:24;;;;;;;;;52.00;40.00;;;;;5.37;45.98;97758.31;6212508;28;96768;-66
2021/12/29 08:04:28;;;;;;;;;52.00;42.40;;;;;5.35;45.78;97761.19;6211004;28;97959;-68
2021/12/29 08:07:31;;;;;;;;;53.00;43.80;;;;;5.44;46.05;97765.25;6210809;28;97901;-69
2021/12/29 08:10:35;;;;;;;;;55.00;43.00;;;;;5.47;45.91;97764.00;6212543;28;97229;-66
2021/12/29 08:13:39;;;;;;;;;53.00;43.00;;;;;5.41;46.03;97759.53;6228278;28;97457;-66
2021/12/29 08:16:44;;;;;;;;;55.60;43.00;;;;;5.50;46.16;97772.41;6213244;28;97081;-65
2021/12/29 08:19:47;;;;;;;;;55.00;43.00;;;;;5.52;46.16;97774.88;6212058;28;96589;-66
2021/12/29 08:22:52;;;;;;;;;58.00;46.00;;;;;5.54;45.89;97775.47;6210815;28;97473;-67
2021/12/29 08:25:55;;;;;;;;;55.40;44.00;;;;;5.55;45.90;97771.75;6208051;28;97500;-68
2021/12/29 08:28:59;;;;;;;;;53.75;42.75;;;;;5.55;46.18;97769.91;6211411;28;97346;-65
2021/12/29 08:32:05;;;;;;;;;57.40;44.00;;;;;5.61;46.54;97770.91;6209505;28;97347;-67
2021/12/29 08:35:09;;;;;;;;;56.00;44.00;;;;;5.66;46.25;97781.75;6201013;28;97427;-69
2021/12/29 08:38:12;;;;;;;;;55.00;43.00;;;;;5.68;46.07;97782.34;6225883;28;97130;-68
2021/12/29 08:41:16;;;;;;;;;52.20;41.00;;;;;5.74;46.17;97777.97;6208561;28;98075;-66
2021/12/29 08:44:19;;;;;;;;;51.80;41.00;;;;;5.85;46.00;97782.63;6212440;28;96988;-68
2021/12/29 08:47:24;;;;;;;;;61.00;45.40;;;;;5.92;46.15;97784.22;6211954;28;97142;-67
2021/12/29 08:50:31;;;;;;;;;57.25;44.25;;;;;5.97;46.32;97787.06;6210920;28;97494;-68
2021/12/29 08:53:36;;;;;;;;;58.50;44.50;;;;;6.07;45.99;97784.72;6209821;28;97300;-67
2021/12/29 08:56:39;;;;;;;;;52.40;41.00;;;;;6.19;45.69;97787.50;6211779;28;96933;-67
2021/12/29 08:59:42;;;;;;;;;57.40;44.00;;;;;6.19;45.87;97782.16;6211583;28;96473;-70
2021/12/29 09:02:48;;;;;;;;;55.00;43.00;;;;;6.23;45.68;97786.03;6207601;28;99523;-69
2021/12/29 09:05:52;;;;;;;;;58.67;44.67;;;;;6.26;45.87;97793.59;6204766;28;98453;-66
2021/12/29 09:08:55;;;;;;;;;59.40;46.00;;;;;6.35;46.00;97788.78;6203059;28;97458;-70
2021/12/29 09:11:59;;;;;;;;;55.00;45.00;;;;;6.47;46.08;97797.72;6210437;28;97013;-69
2021/12/29 09:15:02;;;;;;;;;58.00;44.00;;;;;6.58;45.83;97794.31;6205888;28;97765;-67
2021/12/29 09:18:07;;;;;;;;;53.40;43.00;;;;;6.66;45.23;97787.81;6205490;28;97678;-66
2021/12/29 09:21:16;;;;;;;;;55.50;44.00;;;;;6.65;45.25;97780.81;6197786;28;96755;-65
2021/12/29 09:24:20;;;;;;;;;57.00;44.25;;;;;6.68;45.29;97783.06;6210473;28;96644;-63
2021/12/29 09:27:24;;;;;;;;;61.00;45.40;;;;;6.66;45.38;97783.28;6209952;28;96524;-65
2021/12/29 09:30:31;;;;;;;;;57.60;46.00;;;;;6.61;45.16;97791.19;6209798;28;96598;-67
2021/12/29 09:33:36;;;;;;;;;55.00;43.40;;;;;6.58;45.79;97791.63;6211013;28;97538;-65
2021/12/29 09:36:39;;;;;;;;;57.40;43.80;;;;;6.60;45.49;97791.41;6210779;28;97310;-65
2021/12/29 09:39:43;;;;;;;;;58.00;44.80;;;;;6.65;45.77;97794.22;6210858;28;97007;-65
2021/12/29 09:42:47;;;;;;;;;61.50;47.00;;;;;6.70;45.88;97795.19;6209845;28;97231;-70
2021/12/29 09:45:52;;;;;;;;;56.40;45.00;;;;;6.77;45.87;97801.31;6209083;28;100300;-68
2021/12/29 09:48:56;;;;;;;;;56.80;44.00;;;;;6.86;45.89;97804.50;6209143;28;97408;-67
2021/12/29 09:52:00;;;;;;;;;58.00;46.00;;;;;6.91;45.52;97810.00;6209431;28;96863;-68
2021/12/29 09:55:07;;;;;;;;;55.00;43.00;;;;;7.00;45.44;97802.47;6210854;28;97352;-67
2021/12/29 09:58:10;;;;;;;;;56.20;43.00;;;;;7.06;45.26;97801.56;6208631;28;98612;-70
2021/12/29 10:01:13;;;;;;;;;53.67;44.00;;;;;7.04;45.68;97804.47;6192664;28;99015;-70
2021/12/29 10:04:18;;;;;;;;;53.00;42.80;;;;;6.94;45.75;97805.00;6209572;28;96982;-68
2021/12/29 10:07:22;;;;;;;;;54.75;43.00;;;;;6.92;45.86;97806.28;6198827;28;96810;-67
2021/12/29 10:10:25;;;;;;;;;55.00;44.00;;;;;6.95;46.17;97803.97;6202646;28;99494;-66
2021/12/29 10:13:30;;;;;;;;;55.00;43.50;;;;;6.99;46.07;97806.22;6208513;28;98496;-68
2021/12/29 10:16:33;;;;;;;;;53.00;42.00;;;;;7.00;45.73;97799.78;6211531;28;96552;-66
2021/12/29 10:19:39;;;;;;;;;56.60;45.60;;;;;7.05;45.94;97810.66;6214080;28;96893;-65
2021/12/29 10:22:42;;;;;;;;;60.00;45.00;;;;;6.99;46.14;97803.53;6214787;28;96477;-66
2021/12/29 10:25:46;;;;;;;;;56.20;43.80;;;;;7.11;45.80;97812.44;6224596;28;97602;-66
2021/12/29 10:28:52;;;;;;;;;53.50;42.00;;;;;7.15;45.67;97808.25;6211978;28;96748;-68
2021/12/29 10:31:59;;;;;;;;;56.20;44.00;;;;;7.17;45.92;97803.50;6245562;27;97306;-64
2021/12/29 10:35:04;;;;;;;;;56.60;43.60;;;;;7.21;46.10;97807.34;6211687;28;97901;-69
2021/12/29 10:38:14;;;;;;;;;53.00;43.00;;;;;7.30;46.47;97811.34;6212570;28;97862;-69
2021/12/29 10:41:17;;;;;;;;;58.20;45.00;;;;;7.42;45.83;97806.03;6215358;28;97235;-65
2021/12/29 10:44:27;;;;;;;;;58.00;46.00;;;;;7.51;45.80;97810.84;6217311;28;96370;-66
2021/12/29 10:47:33;;;;;;;;;58.00;45.00;;;;;7.55;46.04;97806.66;6211419;28;98658;-66
2021/12/29 10:50:38;;;;;;;;;58.40;46.00;;;;;7.57;46.01;97807.28;6215347;28;96969;-65
2021/12/29 10:53:42;;;;;;;;;59.00;46.00;;;;;7.54;46.03;97805.03;6210808;28;97398;-65
2021/12/29 10:56:56;;;;;;;;;58.20;46.00;;;;;7.50;46.40;97798.50;6215082;28;97324;-65
2021/12/29 11:00:03;;;;;;;;;58.60;45.40;;;;;7.74;46.25;97805.56;6213500;28;96513;-66
2021/12/29 11:03:11;;;;;;;;;58.75;45.75;;;;;7.82;46.04;97813.25;6214483;28;98366;-66
2021/12/29 11:06:17;;;;;;;;;62.00;48.00;;;;;7.86;45.64;97813.63;6212427;28;97458;-67
2021/12/29 11:09:29;;;;;;;;;60.75;45.75;;;;;7.92;45.56;97809.19;6189372;28;98241;-68
2021/12/29 11:12:43;;;;;;;;;59.60;46.00;;;;;7.94;45.82;97807.94;6209284;28;97378;-65
2021/12/29 11:15:52;;;;;;;;;60.00;45.40;;;;;8.05;45.77;97812.50;6213912;28;97460;-68
2021/12/29 11:18:57;;;;;;;;;62.00;46.80;;;;;8.09;45.62;97800.25;6216173;28;97445;-65
2021/12/29 11:22:14;;;;;;;;;57.20;45.40;;;;;8.11;45.62;97805.41;6198240;28;97156;-65
2021/12/29 11:25:28;;;;;;;;;60.80;46.80;;;;;8.12;46.03;97801.63;6198707;28;97350;-68
2021/12/29 11:28:34;;;;;;;;;56.40;45.00;;;;;8.09;45.75;97802.94;6213137;28;97095;-69
2021/12/29 11:31:41;;;;;;;;;58.60;45.00;;;;;8.08;46.03;97808.53;6213868;28;96368;-67
2021/12/29 11:34:45;;;;;;;;;56.00;45.00;;;;;8.06;46.10;97808.75;6216223;28;97006;-68
2021/12/29 11:37:53;;;;;;;;;56.50;46.00;;;;;8.13;46.06;97808.66;6215056;28;97506;-69
2021/12/29 11:40:59;;;;;;;;;60.80;47.00;;;;;7.98;45.93;97784.13;6215944;28;96920;-65
2021/12/29 11:44:02;;;;;;;;;57.00;45.67;;;;;8.18;46.23;97816.81;6213542;28;97451;-69
2021/12/29 11:47:06;;;;;;;;;57.00;45.00;;;;;8.26;46.07;97819.97;6214468;28;96530;-66
2021/12/29 11:50:12;;;;;;;;;58.50;46.00;;;;;8.30;46.09;97816.88;6217902;28;96921;-66
2021/12/29 11:53:29;;;;;;;;;56.00;44.00;;;;;8.36;45.88;97814.06;6210872;28;99580;-66
2021/12/29 11:56:41;;;;;;;;;57.00;44.80;;;;;8.03;45.66;97754.72;6215030;28;97816;-71
2021/12/29 11:59:44;;;;;;;;;57.40;46.00;;;;;8.55;45.60;97820.94;6214645;28;96441;-64
2021/12/29 12:02:49;;;;;;;;;58.00;45.00;;;;;8.65;45.19;97817.66;6212569;28;97758;-68
2021/12/29 12:05:52;;;;;;;;;60.00;47.40;;;;;8.73;44.89;97819.19;6213330;28;97244;-66
2021/12/29 12:09:17;;;;;;;;;59.00;45.00;;;;;8.82;44.99;97825.81;6213520;28;97091;-65
2021/12/29 12:12:21;;;;;;;;;56.40;45.00;;;;;8.87;44.70;97829.44;6215356;28;96958;-66
2021/12/29 12:15:31;;;;;;;;;61.60;46.00;;;;;8.90;44.67;97822.75;6214008;28;97501;-64
2021/12/29 12:18:45;;;;;;;;;58.00;46.00;;;;;8.92;44.90;97826.03;6214826;28;96511;-65
2021/12/29 12:21:50;;;;;;;;;58.00;46.00;;;;;8.95;44.62;97828.25;6214261;28;97470;-63
2021/12/29 12:25:00;;;;;;;;;61.00;48.00;;;;;8.96;44.55;97829.88;6229459;27;97448;-68
2021/12/29 12:28:15;;;;;;;;;58.00;44.75;;;;;8.98;44.41;97839.34;6210668;28;97982;-64
2021/12/29 12:31:27;;;;;;;;;59.50;46.00;;;;;8.94;44.48;97853.50;6189663;28;97408;-65
2021/12/29 12:34:31;;;;;;;;;62.00;46.75;;;;;8.93;44.09;97851.88;6206174;28;99542;-66
2021/12/29 12:37:38;;;;;;;;;62.60;49.00;;;;;8.82;44.48;97836.56;6213061;28;96726;-67
2021/12/29 12:40:43;;;;;;;;;62.00;47.25;;;;;8.95;44.76;97853.25;6211561;28;97629;-68
2021/12/29 12:43:52;;;;;;;;;62.00;46.40;;;;;8.91;44.35;97854.78;6216876;28;97242;-67
2021/12/29 12:46:56;;;;;;;;;64.60;48.60;;;;;8.93;44.62;97862.63;6208539;28;98405;-66
2021/12/29 12:50:01;;;;;;;;;63.25;48.00;;;;;8.70;44.40;97844.63;6212033;28;97459;-66
2021/12/29 12:53:06;;;;;;;;;63.75;49.00;;;;;8.92;44.51;97879.78;6210103;28;96626;-65
2021/12/29 12:56:15;;;;;;;;;62.60;49.00;;;;;8.96;44.75;97875.56;6205317;28;99465;-64
2021/12/29 12:59:18;;;;;;;;;62.50;48.00;;;;;8.83;44.66;97891.97;6191059;28;97523;-68
2021/12/29 13:02:25;;;;;;;;;61.80;48.20;;;;;8.70;44.84;97884.94;6192640;28;96606;-65
2021/12/29 13:05:31;;;;;;;;;60.00;47.80;;;;;8.72;45.23;97882.03;6190792;28;97435;-66
2021/12/29 13:08:40;;;;;;;;;64.50;49.75;;;;;8.67;45.09;97886.25;6207562;28;98079;-68
2021/12/29 13:11:45;;;;;;;;;62.40;48.00;;;;;8.64;45.39;97894.78;6199852;28;97614;-65
2021/12/29 13:14:48;;;;;;;;;63.20;49.60;;;;;8.67;45.46;97896.16;6185768;28;97297;-68
2021/12/29 13:17:52;;;;;;;;;66.00;50.40;;;;;8.67;45.60;97896.16;6192887;28;97365;-68
2021/12/29 13:20:57;;;;;;;;;62.00;48.00;;;;;8.74;45.70;97907.63;6192392;28;97347;-66
2021/12/29 13:24:05;;;;;;;;;63.60;49.60;;;;;8.89;45.35;97912.53;6187865;28;99683;-69
2021/12/29 13:27:10;;;;;;;;;65.40;49.00;;;;;8.97;45.44;97914.84;6189659;28;96616;-68
2021/12/29 13:30:16;;;;;;;;;63.50;50.00;;;;;8.88;45.32;97898.28;6188545;28;96384;-65
2021/12/29 13:33:24;;;;;;;;;63.60;49.00;;;;;9.11;44.98;97918.94;6194998;28;97819;-67
2021/12/29 13:36:28;;;;;;;;;63.60;48.00;;;;;9.17;45.18;97923.38;6195601;28;97507;-66
2021/12/29 13:39:31;;;;;;;;;64.75;50.00;;;;;9.05;44.87;97906.41;6194776;28;97552;-69
2021/12/29 13:42:41;;;;;;;;;64.00;49.00;;;;;9.21;44.72;97929.09;6198628;28;97851;-66
2021/12/29 13:45:47;;;;;;;;;64.00;50.00;;;;;9.22;44.85;97934.25;6202711;28;99898;-69
2021/12/29 13:48:53;;;;;;;;;61.00;46.75;;;;;9.10;44.87;97938.78;6228040;28;97859;-69
2021/12/29 13:51:56;;;;;;;;;62.00;47.60;;;;;8.94;45.13;97939.53;6217160;28;97038;-68
2021/12/29 13:55:00;;;;;;;;;65.00;49.40;;;;;8.80;45.34;97928.16;6212938;28;96996;-65
2021/12/29 13:58:06;;;;;;;;;60.50;48.00;;;;;8.80;45.50;97940.78;6209741;28;96976;-67
2021/12/29 14:01:11;;;;;;;;;62.00;50.00;;;;;8.69;45.73;97934.38;6191802;28;97968;-66
2021/12/29 14:04:17;;;;;;;;;61.60;48.00;;;;;8.67;46.02;97942.66;6208948;28;96997;-65
2021/12/29 14:07:20;;;;;;;;;62.80;48.80;;;;;8.69;45.84;97945.94;6214236;28;96701;-67
2021/12/29 14:10:24;;;;;;;;;62.40;49.00;;;;;8.67;45.77;97950.72;6197331;28;98964;-66
2021/12/29 14:13:34;;;;;;;;;62.60;48.00;;;;;8.64;45.87;97950.38;6215278;28;97047;-68
2021/12/29 14:16:45;;;;;;;;;62.60;48.00;;;;;8.61;46.14;97945.44;6217207;28;97398;-65
2021/12/29 14:19:49;;;;;;;;;63.50;49.00;;;;;8.61;46.08;97951.63;6216288;28;97312;-65
2021/12/29 14:23:02;;;;;;;;;64.00;49.40;;;;;8.64;46.18;97963.81;6217289;28;96869;-66
2021/12/29 14:26:09;;;;;;;;;61.40;48.00;;;;;8.63;46.35;97968.34;6214305;28;97134;-67
2021/12/29 14:29:19;;;;;;;;;65.00;50.00;;;;;8.66;46.11;97969.75;6198795;28;96390;-69